• Join FlightAware (Why Join?)
  • Login
  • US Flag 
11:42AM EDT


 

Airport Tracker/Info


-or-


 

Live Flight TrackerFlight Track Log ✈ EJA941 ✈ 03-May-2013 ✈ KSJC - KCRQ

Flight Track Log - Related Links

Times and Time Zones

All times are in EDT time to prevent confusion due to time zone crossing. See the EJA941 flight status page for this flight to view local times or setup timezone preferences in your user account.

Time Position Orientation Groundspeed Altitude Reporting Facility
EDT Latitude Longitude Course Direction KTS MPH feet Rate Location/Type
08:26PM 36.0719 -120.4382 137° Southeast  Level Estimated
08:27PM 35.9852 -120.3405 138° Southeast  Level Estimated
08:28PM 35.8985 -120.2431 138° Southeast  Level Estimated
08:29PM 35.8116 -120.1459 138° Southeast  Level Estimated
08:30PM 35.7247 -120.0489 138° Southeast  Level Estimated
08:31PM 35.6377 -119.9521 138° Southeast  Level Estimated
08:32PM 35.5506 -119.8555 138° Southeast  Level Estimated
08:33PM 35.4634 -119.7592 138° Southeast  Level Estimated
08:34PM 35.3762 -119.6630 138° Southeast  Level Estimated
08:35PM 35.2888 -119.5671 138° Southeast  Level Estimated
08:36PM 35.2015 -119.4713 138° Southeast  Level Estimated
08:37PM 35.1140 -119.3758 138° Southeast  Level Estimated
08:38PM 35.0265 -119.2805 138° Southeast  Level Estimated
08:39PM 34.9388 -119.1853 138° Southeast  Level Estimated
08:40PM 34.8511 -119.0904 138° Southeast  Level Estimated
08:41PM 34.7634 -118.9957 138° Southeast  Level Estimated
08:42PM 34.6755 -118.9012 138° Southeast  Level Estimated
08:43PM 34.5876 -118.8068 139° Southeast  Level Estimated
08:44PM 34.4996 -118.7127 139° Southeast  Level Estimated
08:45PM 34.4116 -118.6188 139° Southeast  Level Estimated
08:46PM 34.3234 -118.5251 139° Southeast  Level Estimated
08:47PM 34.2352 -118.4316 139° Southeast  Level Estimated
08:48PM 34.1470 -118.3382 139° Southeast  Level Estimated
08:49PM 34.0586 -118.2451 139° Southeast  Level Estimated
08:50PM 33.9702 -118.1522 139° Southeast  Level Estimated
08:51PM 33.8817 -118.0594 139° Southeast  Level Estimated
08:52PM 33.7932 -117.9668 139° Southeast  Level Estimated
08:53PM 33.7046 -117.8745 139° Southeast  Level Estimated
08:54PM 33.6159 -117.7823 139° Southeast  Level Estimated
08:55PM 33.5271 -117.6903 139° Southeast  Level Estimated
08:56PM 33.4383 -117.5985 139° Southeast  Level Estimated
08:57PM 33.3494 -117.5069 139° Southeast  Level Estimated
08:58PM 33.2605 -117.4155 139° Southeast  Level Estimated
08:59PM 33.1714 -117.3242 139° Southeast  Level Estimated
09:00PM 33.1283 -117.2801 139° Southeast  Level Estimated
09:01PM 33.1283 -117.2801 270° West  Level Estimated
09:02PM 33.1283 -117.2801 270° West  Level Estimated
09:03PM 33.1283 -117.2801 270° West  Level Estimated
09:04PM 33.1283 -117.2801 270° West  Level Estimated
09:05PM 33.1283 -117.2801 270° West  Level Estimated
09:06PM 33.1283 -117.2801 270° West  Level Estimated
09:07PM 33.1283 -117.2801 270° West  Level Estimated
09:08PM 33.1283 -117.2801 270° West  Level Estimated
09:09PM 33.1283 -117.2801 270° West  Level Estimated
09:10PM 33.1283 -117.2801 270° West  Level Estimated
09:11PM 33.1283 -117.2801 270° West  Level Estimated
09:12PM 33.1283 -117.2801 270° West  Level Estimated
09:13PM 33.1283 -117.2801 270° West  Level Estimated
09:14PM 33.1283 -117.2801 270° West  Level Estimated
09:15PM 33.1283 -117.2801 270° West  Level Estimated
09:16PM 33.1283 -117.2801 270° West  Level Estimated
09:17PM 33.1283 -117.2801 270° West  Level Estimated
09:18PM 33.1283 -117.2801 270° West  Level Estimated
09:19PM 33.1283 -117.2801 270° West  Level Estimated
09:20PM 33.1283 -117.2801 270° West  Level Estimated
09:21PM 33.1283 -117.2801 270° West  Level Estimated
09:22PM 33.1283 -117.2801 270° West  Level Estimated
09:23PM 33.1283 -117.2801 270° West  Level Estimated
09:24PM 33.1283 -117.2801 270° West  Level Estimated
09:25PM 33.1283 -117.2801 270° West  Level Estimated
09:26PM 33.1283 -117.2801 270° West  Level Estimated
09:27PM 33.1283 -117.2801 270° West  Level Estimated
09:28PM 33.1283 -117.2801 270° West  Level Estimated
09:29PM 33.1283 -117.2801 270° West  Level Estimated
09:30PM 33.1283 -117.2801 270° West  Level Estimated
09:31PM 33.1283 -117.2801 270° West  Level Estimated